Time;durP1;ratioP1;P1;durP2;ratioP2;P2;SDS_P1;SDS_P2;PMS_P1;PMS_P2;Temp;Humidity;BMP_temperature;BMP_pressure;BME280_temperature;BME280_humidity;BME280_pressure;Samples;Min_cycle;Max_cycle;Signal;HPM_P1;HPM_P2
2022/04/13 00:28:02;;;;;;;1999.90;999.90;;;;;;;;;;5078674;28;20215;-74
2022/04/13 00:30:29;;;;;;;1999.90;999.90;;;;;;;;;;5081203;28;21523;-75
2022/04/13 00:32:57;;;;;;;1999.90;999.90;;;;;;;;;;5055250;28;20325;-74
2022/04/13 00:35:25;;;;;;;1999.90;999.90;;;;;;;;;;5069635;28;20365;-76
2022/04/13 00:37:52;;;;;;;1999.90;999.90;;;;;;;;;;5073275;28;21204;-75
2022/04/13 00:40:20;;;;;;;1999.90;999.90;;;;;;;;;;5073814;28;20831;-74
2022/04/13 00:42:47;;;;;;;1999.90;999.90;;;;;;;;;;5076304;28;20729;-76
2022/04/13 00:45:16;;;;;;;1999.90;999.90;;;;;;;;;;5072328;28;20320;-75
2022/04/13 00:47:47;;;;;;;1999.90;999.90;;;;;;;;;;5075267;28;20782;-74
2022/04/13 00:50:15;;;;;;;1999.90;999.90;;;;;;;;;;5085274;28;20227;-74
2022/04/13 00:52:44;;;;;;;1999.90;999.90;;;;;;;;;;5078092;28;20288;-74
2022/04/13 00:55:14;;;;;;;1999.90;999.90;;;;;;;;;;5081158;28;20230;-75
2022/04/13 00:57:41;;;;;;;1999.90;999.90;;;;;;;;;;5084973;28;20235;-74
2022/04/13 01:00:10;;;;;;;1999.90;999.90;;;;;;;;;;5080876;28;20227;-75
2022/04/13 01:02:39;;;;;;;1999.90;999.90;;;;;;;;;;5079581;28;20234;-76
2022/04/13 01:05:08;;;;;;;1999.90;999.90;;;;;;;;;;5073133;28;20227;-74
2022/04/13 01:07:36;;;;;;;1999.90;999.90;;;;;;;;;;5059612;28;20234;-73
2022/04/13 01:10:05;;;;;;;1999.90;999.90;;;;;;;;;;5075344;28;20257;-75
2022/04/13 01:12:33;;;;;;;1999.90;999.90;;;;;;;;;;5073629;28;20238;-76
2022/04/13 01:15:01;;;;;;;1999.90;999.90;;;;;;;;;;5074002;28;21790;-75
2022/04/13 01:17:28;;;;;;;1999.90;999.90;;;;;;;;;;5112275;27;20227;-75
2022/04/13 01:19:58;;;;;;;1999.90;999.90;;;;;;;;;;5076964;28;20318;-74
2022/04/13 01:22:27;;;;;;;1999.90;999.90;;;;;;;;;;5074357;28;20235;-75
2022/04/13 01:24:54;;;;;;;1999.90;999.90;;;;;;;;;;5081253;28;20786;-75
2022/04/13 01:27:22;;;;;;;1999.90;999.90;;;;;;;;;;5082423;28;20309;-75
2022/04/13 01:29:54;;;;;;;1999.90;999.90;;;;;;;;;;5075849;28;20235;-74
2022/04/13 01:32:22;;;;;;;1999.90;999.90;;;;;;;;;;5107373;27;20316;-75
2022/04/13 01:34:50;;;;;;;1999.90;999.90;;;;;;;;;;5110379;27;20239;-74
2022/04/13 01:37:18;;;;;;;1999.90;999.90;;;;;;;;;;5076225;28;20298;-74
2022/04/13 01:39:47;;;;;;;1999.90;999.90;;;;;;;;;;5076641;28;20247;-74
2022/04/13 01:42:15;;;;;;;1999.90;999.90;;;;;;;;;;5079546;28;20239;-76
2022/04/13 01:44:45;;;;;;;1999.90;999.90;;;;;;;;;;5077564;28;20713;-76
2022/04/13 01:47:12;;;;;;;1999.90;999.90;;;;;;;;;;5077640;28;20255;-75
2022/04/13 01:49:41;;;;;;;1999.90;999.90;;;;;;;;;;5063507;28;20234;-74
2022/04/13 01:52:09;;;;;;;1999.90;999.90;;;;;;;;;;5083146;28;20381;-75
2022/04/13 01:54:37;;;;;;;1999.90;999.90;;;;;;;;;;5083237;28;20284;-77
2022/04/13 01:57:06;;;;;;;1999.90;999.90;;;;;;;;;;5078253;28;20250;-75
2022/04/13 01:59:34;;;;;;;1999.90;999.90;;;;;;;;;;5086616;28;20224;-75
2022/04/13 02:02:04;;;;;;;1999.90;999.90;;;;;;;;;;5077457;28;20297;-75
2022/04/13 02:04:32;;;;;;;1999.90;999.90;;;;;;;;;;5065300;28;20232;-76
2022/04/13 02:07:00;;;;;;;1999.90;999.90;;;;;;;;;;5080977;28;20293;-75
2022/04/13 02:09:27;;;;;;;1999.90;999.90;;;;;;;;;;5084303;28;20728;-74
2022/04/13 02:11:55;;;;;;;1999.90;999.90;;;;;;;;;;5083019;28;20261;-75
2022/04/13 02:14:24;;;;;;;1999.90;999.90;;;;;;;;;;5084016;28;20737;-76
2022/04/13 02:16:51;;;;;;;1999.90;999.90;;;;;;;;;;5085305;28;20247;-75
2022/04/13 02:19:19;;;;;;;1999.90;999.90;;;;;;;;;;5082899;28;20235;-73
2022/04/13 02:21:47;;;;;;;1999.90;999.90;;;;;;;;;;5081759;28;20224;-73
2022/04/13 02:24:15;;;;;;;1999.90;999.90;;;;;;;;;;5081668;28;20884;-75
2022/04/13 02:26:42;;;;;;;1999.90;999.90;;;;;;;;;;5085782;28;20307;-74
2022/04/13 02:29:10;;;;;;;1999.90;999.90;;;;;;;;;;5083389;28;20650;-71
2022/04/13 02:31:38;;;;;;;1999.90;999.90;;;;;;;;;;5080914;28;20263;-71
2022/04/13 02:34:06;;;;;;;1999.90;999.90;;;;;;;;;;5081568;28;20694;-72
2022/04/13 02:36:34;;;;;;;1999.90;999.90;;;;;;;;;;5079862;28;20266;-71
2022/04/13 02:39:02;;;;;;;1999.90;999.90;;;;;;;;;;5079939;28;20224;-72
2022/04/13 02:41:29;;;;;;;1999.90;999.90;;;;;;;;;;5081274;28;20259;-72
2022/04/13 02:43:57;;;;;;;1999.90;999.90;;;;;;;;;;5111925;27;20724;-72
2022/04/13 02:46:24;;;;;;;1999.90;999.90;;;;;;;;;;5086019;28;20319;-72
2022/04/13 02:48:53;;;;;;;1999.90;999.90;;;;;;;;;;5113935;27;20227;-72
2022/04/13 02:51:21;;;;;;;1999.90;999.90;;;;;;;;;;5085836;28;20290;-72
2022/04/13 02:53:49;;;;;;;1999.90;999.90;;;;;;;;;;5081328;28;20288;-72
2022/04/13 02:56:17;;;;;;;1999.90;999.90;;;;;;;;;;5098920;27;20223;-73
2022/04/13 02:58:44;;;;;;;1999.90;999.90;;;;;;;;;;5111449;27;20285;-73
2022/04/13 03:01:12;;;;;;;1999.90;999.90;;;;;;;;;;5082379;28;20289;-73
2022/04/13 03:03:39;;;;;;;1999.90;999.90;;;;;;;;;;5082059;28;20242;-73
2022/04/13 03:06:08;;;;;;;1999.90;999.90;;;;;;;;;;5082988;28;20270;-73
2022/04/13 03:08:36;;;;;;;1999.90;999.90;;;;;;;;;;5084102;28;20223;-73
2022/04/13 03:11:04;;;;;;;1999.90;999.90;;;;;;;;;;5078417;28;20224;-73
2022/04/13 03:13:31;;;;;;;1999.90;999.90;;;;;;;;;;5083676;28;20342;-73
2022/04/13 03:15:59;;;;;;;1999.90;999.90;;;;;;;;;;5068615;28;20315;-73
2022/04/13 03:18:27;;;;;;;1999.90;999.90;;;;;;;;;;5078279;28;20234;-72
2022/04/13 03:20:54;;;;;;;1999.90;999.90;;;;;;;;;;5084563;28;20251;-73
2022/04/13 03:23:23;;;;;;;1999.90;999.90;;;;;;;;;;5081899;28;20745;-73
2022/04/13 03:25:52;;;;;;;1999.90;999.90;;;;;;;;;;5080833;28;20301;-73
2022/04/13 03:28:23;;;;;;;1999.90;999.90;;;;;;;;;;5081042;28;20228;-73
2022/04/13 03:30:52;;;;;;;1999.90;999.90;;;;;;;;;;5079314;28;20315;-73
2022/04/13 03:33:20;;;;;;;1999.90;999.90;;;;;;;;;;5079315;28;20709;-72
2022/04/13 03:35:47;;;;;;;1999.90;999.90;;;;;;;;;;5082939;28;20235;-73
2022/04/13 03:38:15;;;;;;;1999.90;999.90;;;;;;;;;;5078300;28;20661;-73
2022/04/13 03:40:43;;;;;;;1999.90;999.90;;;;;;;;;;5080802;28;20278;-73
2022/04/13 03:43:11;;;;;;;1999.90;999.90;;;;;;;;;;5096152;27;20273;-72
2022/04/13 03:45:39;;;;;;;1999.90;999.90;;;;;;;;;;5083893;28;20281;-73
2022/04/13 03:48:06;;;;;;;1999.90;999.90;;;;;;;;;;5081327;28;20683;-72
2022/04/13 03:50:34;;;;;;;1999.90;999.90;;;;;;;;;;5079073;28;20251;-72
2022/04/13 03:53:01;;;;;;;1999.90;999.90;;;;;;;;;;5079097;28;20231;-73
2022/04/13 03:55:29;;;;;;;1999.90;999.90;;;;;;;;;;5084682;28;20231;-72
2022/04/13 03:57:58;;;;;;;1999.90;999.90;;;;;;;;;;5080833;28;21098;-76
2022/04/13 04:00:26;;;;;;;1999.90;999.90;;;;;;;;;;5080558;28;20228;-71
2022/04/13 04:02:54;;;;;;;1999.90;999.90;;;;;;;;;;5071765;28;20227;-76
2022/04/13 04:05:22;;;;;;;1999.90;999.90;;;;;;;;;;5076860;28;20238;-75
2022/04/13 04:07:49;;;;;;;1999.90;999.90;;;;;;;;;;5080891;28;21119;-77
2022/04/13 04:10:17;;;;;;;1999.90;999.90;;;;;;;;;;5083251;28;20630;-77
2022/04/13 04:12:44;;;;;;;1999.90;999.90;;;;;;;;;;5074581;28;20239;-75
2022/04/13 04:15:13;;;;;;;1999.90;999.90;;;;;;;;;;5064441;28;20673;-75
2022/04/13 04:17:41;;;;;;;1999.90;999.90;;;;;;;;;;5109565;27;20231;-75
2022/04/13 04:20:09;;;;;;;1999.90;999.90;;;;;;;;;;5079058;28;20257;-75
2022/04/13 04:22:37;;;;;;;1999.90;999.90;;;;;;;;;;5085172;28;20339;-77
2022/04/13 04:25:05;;;;;;;1999.90;999.90;;;;;;;;;;5113468;27;20326;-75
2022/04/13 04:27:33;;;;;;;1999.90;999.90;;;;;;;;;;5110213;27;20257;-75
2022/04/13 04:30:00;;;;;;;1999.90;999.90;;;;;;;;;;5075154;28;20701;-75
2022/04/13 04:32:29;;;;;;;1999.90;999.90;;;;;;;;;;5081921;28;20231;-75
2022/04/13 04:34:57;;;;;;;1999.90;999.90;;;;;;;;;;5083299;28;20277;-73
2022/04/13 04:37:24;;;;;;;1999.90;999.90;;;;;;;;;;5086527;28;20284;-73
2022/04/13 04:39:52;;;;;;;1999.90;999.90;;;;;;;;;;5097417;27;20236;-73
2022/04/13 04:42:19;;;;;;;1999.90;999.90;;;;;;;;;;5107944;27;20302;-73
2022/04/13 04:44:47;;;;;;;1999.90;999.90;;;;;;;;;;5083394;28;20250;-74
2022/04/13 04:47:14;;;;;;;1999.90;999.90;;;;;;;;;;5074635;28;20223;-73
2022/04/13 04:49:44;;;;;;;1999.90;999.90;;;;;;;;;;5112201;27;20237;-73
2022/04/13 04:52:11;;;;;;;1999.90;999.90;;;;;;;;;;5081783;28;20281;-72
2022/04/13 04:54:39;;;;;;;1999.90;999.90;;;;;;;;;;5082230;28;20265;-74
2022/04/13 04:57:06;;;;;;;1999.90;999.90;;;;;;;;;;5111896;27;20721;-73
2022/04/13 04:59:34;;;;;;;1999.90;999.90;;;;;;;;;;5115115;27;20258;-72
2022/04/13 05:02:02;;;;;;;1999.90;999.90;;;;;;;;;;5082028;28;20850;-72
2022/04/13 05:04:29;;;;;;;1999.90;999.90;;;;;;;;;;5095796;27;20250;-71
2022/04/13 05:06:58;;;;;;;1999.90;999.90;;;;;;;;;;5078873;28;20223;-72
2022/04/13 05:09:28;;;;;;;1999.90;999.90;;;;;;;;;;5083239;28;20238;-73
2022/04/13 05:12:01;;;;;;;1999.90;999.90;;;;;;;;;;5077735;28;20227;-72
2022/04/13 05:14:29;;;;;;;1999.90;999.90;;;;;;;;;;5074837;28;21235;-72
2022/04/13 05:16:57;;;;;;;1999.90;999.90;;;;;;;;;;5077090;28;20258;-74
2022/04/13 05:19:28;;;;;;;1999.90;999.90;;;;;;;;;;5079289;28;20232;-74
2022/04/13 05:21:56;;;;;;;1999.90;999.90;;;;;;;;;;5078436;28;20232;-74
2022/04/13 05:24:25;;;;;;;1999.90;999.90;;;;;;;;;;5077878;28;20227;-74
2022/04/13 05:26:52;;;;;;;1999.90;999.90;;;;;;;;;;5080586;28;20288;-73
2022/04/13 05:29:21;;;;;;;1999.90;999.90;;;;;;;;;;5085054;28;20230;-73
2022/04/13 05:31:48;;;;;;;1999.90;999.90;;;;;;;;;;5115411;27;20318;-73
2022/04/13 05:34:16;;;;;;;1999.90;999.90;;;;;;;;;;5085267;28;20239;-73
2022/04/13 05:36:44;;;;;;;1999.90;999.90;;;;;;;;;;5085938;28;20315;-73
2022/04/13 05:39:11;;;;;;;1999.90;999.90;;;;;;;;;;5082126;28;20292;-73
2022/04/13 05:41:41;;;;;;;1999.90;999.90;;;;;;;;;;5072471;28;20245;-74
2022/04/13 05:44:08;;;;;;;1999.90;999.90;;;;;;;;;;5077448;28;20822;-73
2022/04/13 05:46:36;;;;;;;1999.90;999.90;;;;;;;;;;5083749;28;20263;-74
2022/04/13 05:49:04;;;;;;;1999.90;999.90;;;;;;;;;;5085285;28;21057;-73
2022/04/13 05:51:32;;;;;;;1999.90;999.90;;;;;;;;;;5088645;28;20721;-73
2022/04/13 05:53:59;;;;;;;1999.90;999.90;;;;;;;;;;5079311;28;20235;-72
2022/04/13 05:56:27;;;;;;;1999.90;999.90;;;;;;;;;;5087412;28;20266;-73
2022/04/13 05:58:57;;;;;;;1999.90;999.90;;;;;;;;;;5094878;27;20256;-73
2022/04/13 06:01:25;;;;;;;1999.90;999.90;;;;;;;;;;5084819;28;20784;-74
2022/04/13 06:03:53;;;;;;;1999.90;999.90;;;;;;;;;;5081074;28;20338;-72
2022/04/13 06:06:21;;;;;;;1999.90;999.90;;;;;;;;;;5086565;28;20238;-72
2022/04/13 06:08:49;;;;;;;1999.90;999.90;;;;;;;;;;5080929;28;20982;-72
2022/04/13 06:11:16;;;;;;;1999.90;999.90;;;;;;;;;;5076415;28;20308;-72
2022/04/13 06:13:44;;;;;;;1999.90;999.90;;;;;;;;;;5096228;27;20255;-72
2022/04/13 06:16:13;;;;;;;1999.90;999.90;;;;;;;;;;5078753;27;20996;-73
2022/04/13 06:18:40;;;;;;;1999.90;999.90;;;;;;;;;;5091751;27;21239;-73
2022/04/13 06:21:09;;;;;;;1999.90;999.90;;;;;;;;;;5084518;28;20636;-73
2022/04/13 06:23:40;;;;;;;1999.90;999.90;;;;;;;;;;5084396;28;20231;-73
2022/04/13 06:26:07;;;;;;;1999.90;999.90;;;;;;;;;;5081446;28;20240;-77
2022/04/13 06:28:35;;;;;;;1999.90;999.90;;;;;;;;;;5081502;28;20239;-74
2022/04/13 06:31:02;;;;;;;1999.90;999.90;;;;;;;;;;5085782;28;20233;-74
2022/04/13 06:33:31;;;;;;;1999.90;999.90;;;;;;;;;;5076450;28;20231;-76
2022/04/13 06:36:00;;;;;;;1999.90;999.90;;;;;;;;;;5108334;27;20231;-77
2022/04/13 06:38:27;;;;;;;1999.90;999.90;;;;;;;;;;5084319;28;21074;-78
2022/04/13 06:40:56;;;;;;;1999.90;999.90;;;;;;;;;;5078983;28;20224;-75
2022/04/13 06:43:24;;;;;;;1999.90;999.90;;;;;;;;;;5085161;28;20373;-78
2022/04/13 06:45:53;;;;;;;1999.90;999.90;;;;;;;;;;5079711;28;20536;-77
2022/04/13 06:48:21;;;;;;;1999.90;999.90;;;;;;;;;;5083650;28;20306;-78
2022/04/13 06:50:50;;;;;;;1999.90;999.90;;;;;;;;;;5082248;28;20296;-78
2022/04/13 06:53:18;;;;;;;1999.90;999.90;;;;;;;;;;5083915;28;20235;-76
2022/04/13 06:55:47;;;;;;;1999.90;999.90;;;;;;;;;;5110181;27;20798;-75
2022/04/13 06:58:15;;;;;;;1999.90;999.90;;;;;;;;;;5082074;28;20286;-77
2022/04/13 07:00:43;;;;;;;1999.90;999.90;;;;;;;;;;5082360;28;20843;-77
2022/04/13 07:03:10;;;;;;;1999.90;999.90;;;;;;;;;;5076991;28;20741;-76
2022/04/13 07:05:39;;;;;;;1999.90;999.90;;;;;;;;;;5111277;27;20963;-77
2022/04/13 07:08:08;;;;;;;1999.90;999.90;;;;;;;;;;5084250;28;20242;-77
2022/04/13 07:10:36;;;;;;;1999.90;999.90;;;;;;;;;;5084168;28;20358;-76
2022/04/13 07:13:10;;;;;;;1999.90;999.90;;;;;;;;;;5080494;28;20301;-78
2022/04/13 07:15:39;;;;;;;1999.90;999.90;;;;;;;;;;5082099;28;20990;-77
2022/04/13 07:18:06;;;;;;;1999.90;999.90;;;;;;;;;;5109408;27;20236;-77
2022/04/13 07:20:34;;;;;;;1999.90;999.90;;;;;;;;;;5079212;28;20613;-77
2022/04/13 07:23:01;;;;;;;1999.90;999.90;;;;;;;;;;5079728;28;20239;-77
2022/04/13 07:25:31;;;;;;;1999.90;999.90;;;;;;;;;;5078753;28;20246;-79
2022/04/13 07:27:59;;;;;;;1999.90;999.90;;;;;;;;;;5082949;28;20775;-79
2022/04/13 07:30:27;;;;;;;1999.90;999.90;;;;;;;;;;5078622;28;20227;-77
2022/04/13 07:32:58;;;;;;;1999.90;999.90;;;;;;;;;;5075629;28;20235;-78
2022/04/13 07:35:26;;;;;;;1999.90;999.90;;;;;;;;;;5069505;28;20441;-78
2022/04/13 07:37:54;;;;;;;1999.90;999.90;;;;;;;;;;5076068;28;20234;-76
2022/04/13 07:40:22;;;;;;;1999.90;999.90;;;;;;;;;;5118231;27;20234;-78
2022/04/13 07:42:50;;;;;;;1999.90;999.90;;;;;;;;;;5070223;28;20240;-79
2022/04/13 07:45:18;;;;;;;1999.90;999.90;;;;;;;;;;5076829;28;20579;-77
2022/04/13 07:47:46;;;;;;;1999.90;999.90;;;;;;;;;;5078257;28;20714;-77
2022/04/13 07:50:13;;;;;;;1999.90;999.90;;;;;;;;;;5086691;28;20300;-78
2022/04/13 07:52:42;;;;;;;1999.90;999.90;;;;;;;;;;5082173;28;20263;-76
2022/04/13 07:55:10;;;;;;;1999.90;999.90;;;;;;;;;;5068201;28;20702;-77
2022/04/13 07:57:38;;;;;;;1999.90;999.90;;;;;;;;;;5080893;28;20243;-79
2022/04/13 08:00:09;;;;;;;1999.90;999.90;;;;;;;;;;5084223;28;20922;-76
2022/04/13 08:02:40;;;;;;;1999.90;999.90;;;;;;;;;;5080138;28;20231;-76
2022/04/13 08:05:09;;;;;;;1999.90;999.90;;;;;;;;;;5064447;28;20220;-79
2022/04/13 08:07:37;;;;;;;1999.90;999.90;;;;;;;;;;5081731;28;20230;-77
2022/04/13 08:10:04;;;;;;;1999.90;999.90;;;;;;;;;;5083152;27;20291;-75
2022/04/13 08:12:32;;;;;;;1999.90;999.90;;;;;;;;;;5077998;28;20249;-76
2022/04/13 08:15:00;;;;;;;1999.90;999.90;;;;;;;;;;5077132;28;20702;-76
2022/04/13 08:17:29;;;;;;;1999.90;999.90;;;;;;;;;;5080578;28;20231;-77
2022/04/13 08:19:57;;;;;;;1999.90;999.90;;;;;;;;;;5076359;28;20628;-76
2022/04/13 08:22:25;;;;;;;1999.90;999.90;;;;;;;;;;5081788;28;20280;-76
2022/04/13 08:24:52;;;;;;;1999.90;999.90;;;;;;;;;;5076917;28;20235;-78
2022/04/13 08:27:20;;;;;;;1999.90;999.90;;;;;;;;;;5096664;27;20247;-76
2022/04/13 08:29:48;;;;;;;1999.90;999.90;;;;;;;;;;5082518;28;20227;-76
2022/04/13 08:32:16;;;;;;;1999.90;999.90;;;;;;;;;;5076815;28;20231;-78
2022/04/13 08:34:45;;;;;;;1999.90;999.90;;;;;;;;;;5081063;28;20228;-77
2022/04/13 08:37:13;;;;;;;1999.90;999.90;;;;;;;;;;5076212;28;21063;-78
2022/04/13 08:39:41;;;;;;;1999.90;999.90;;;;;;;;;;5081239;28;20252;-78
2022/04/13 08:42:11;;;;;;;1999.90;999.90;;;;;;;;;;5077607;28;20224;-77
2022/04/13 08:44:44;;;;;;;1999.90;999.90;;;;;;;;;;5078195;28;20289;-80
2022/04/13 08:47:12;;;;;;;1999.90;999.90;;;;;;;;;;5076304;28;20240;-77
2022/04/13 08:49:40;;;;;;;1999.90;999.90;;;;;;;;;;5081042;28;20278;-78
2022/04/13 08:52:10;;;;;;;1999.90;999.90;;;;;;;;;;5081169;28;20694;-76
2022/04/13 08:54:41;;;;;;;1999.90;999.90;;;;;;;;;;5085377;28;20250;-78
2022/04/13 08:57:10;;;;;;;1999.90;999.90;;;;;;;;;;5100149;27;20228;-77
2022/04/13 09:00:02;;;;;;;1999.90;999.90;;;;;;;;;;5084851;28;20227;-79
2022/04/13 09:02:33;;;;;;;1999.90;999.90;;;;;;;;;;5115237;27;20265;-75
2022/04/13 09:05:01;;;;;;;1999.90;999.90;;;;;;;;;;5085423;28;20288;-78
2022/04/13 09:07:31;;;;;;;1999.90;999.90;;;;;;;;;;5080718;28;20243;-79
2022/04/13 09:10:01;;;;;;;1999.90;999.90;;;;;;;;;;5084749;28;20227;-78
2022/04/13 09:12:30;;;;;;;1999.90;999.90;;;;;;;;;;5087655;28;20219;-77
2022/04/13 09:14:58;;;;;;;1999.90;999.90;;;;;;;;;;5115793;27;20223;-77
2022/04/13 09:17:28;;;;;;;1999.90;999.90;;;;;;;;;;5064046;28;20293;-77
2022/04/13 09:19:56;;;;;;;1999.90;999.90;;;;;;;;;;5082381;27;20288;-78
2022/04/13 09:22:24;;;;;;;1999.90;999.90;;;;;;;;;;5089076;28;20255;-77
2022/04/13 09:24:53;;;;;;;1999.90;999.90;;;;;;;;;;5086762;28;20297;-79
2022/04/13 09:27:21;;;;;;;1999.90;999.90;;;;;;;;;;5090894;28;20246;-77
2022/04/13 09:29:48;;;;;;;1999.90;999.90;;;;;;;;;;5081628;28;20281;-76
2022/04/13 09:32:16;;;;;;;1999.90;999.90;;;;;;;;;;5087482;28;20808;-77
2022/04/13 09:34:44;;;;;;;1999.90;999.90;;;;;;;;;;5107275;27;20278;-77
2022/04/13 09:37:12;;;;;;;1999.90;999.90;;;;;;;;;;5084850;28;20235;-77
2022/04/13 09:39:39;;;;;;;1999.90;999.90;;;;;;;;;;5070883;28;20251;-78
2022/04/13 09:42:13;;;;;;;1999.90;999.90;;;;;;;;;;5087192;28;20273;-77
2022/04/13 09:44:41;;;;;;;1999.90;999.90;;;;;;;;;;5081574;28;20263;-78
2022/04/13 09:47:09;;;;;;;1999.90;999.90;;;;;;;;;;5085503;28;20240;-77
2022/04/13 09:49:41;;;;;;;1999.90;999.90;;;;;;;;;;5081436;28;20231;-77
2022/04/13 09:52:09;;;;;;;1999.90;999.90;;;;;;;;;;5108135;27;20243;-78
2022/04/13 09:54:42;;;;;;;1999.90;999.90;;;;;;;;;;5075720;28;20251;-77
2022/04/13 09:57:20;;;;;;;1999.90;999.90;;;;;;;;;;5098731;27;20820;-77
2022/04/13 09:59:53;;;;;;;1999.90;999.90;;;;;;;;;;5082202;28;20303;-77
2022/04/13 10:02:33;;;;;;;1999.90;999.90;;;;;;;;;;5087722;28;20231;-77
2022/04/13 10:05:01;;;;;;;1999.90;999.90;;;;;;;;;;5113656;27;20314;-75
2022/04/13 10:07:28;;;;;;;1999.90;999.90;;;;;;;;;;5084713;28;20239;-74
2022/04/13 10:09:56;;;;;;;1999.90;999.90;;;;;;;;;;5083646;28;20748;-74
2022/04/13 10:12:25;;;;;;;1999.90;999.90;;;;;;;;;;5097207;27;20305;-74
2022/04/13 10:14:53;;;;;;;1999.90;999.90;;;;;;;;;;5081904;28;20239;-74
2022/04/13 10:17:21;;;;;;;1999.90;999.90;;;;;;;;;;5061828;28;20262;-75
2022/04/13 10:19:55;;;;;;;1999.90;999.90;;;;;;;;;;5092084;27;20641;-74
2022/04/13 10:22:22;;;;;;;1999.90;999.90;;;;;;;;;;5114126;27;20262;-74
2022/04/13 10:24:50;;;;;;;1999.90;999.90;;;;;;;;;;5083597;28;20686;-73
2022/04/13 10:27:19;;;;;;;1999.90;999.90;;;;;;;;;;5087781;28;20239;-75
2022/04/13 10:29:49;;;;;;;1999.90;999.90;;;;;;;;;;5077734;28;20277;-73
2022/04/13 10:32:17;;;;;;;1999.90;999.90;;;;;;;;;;5082297;28;22293;-74
2022/04/13 10:34:46;;;;;;;1999.90;999.90;;;;;;;;;;5082477;28;20714;-73
2022/04/13 10:37:14;;;;;;;1999.90;999.90;;;;;;;;;;5081467;28;20231;-75
2022/04/13 10:39:42;;;;;;;1999.90;999.90;;;;;;;;;;5116205;27;20231;-74
2022/04/13 10:42:11;;;;;;;1999.90;999.90;;;;;;;;;;5084603;28;20667;-73
2022/04/13 10:44:42;;;;;;;1999.90;999.90;;;;;;;;;;5083794;28;20292;-74
2022/04/13 10:47:11;;;;;;;1999.90;999.90;;;;;;;;;;5083780;28;20722;-74
2022/04/13 10:49:40;;;;;;;1999.90;999.90;;;;;;;;;;5080050;28;20342;-73
2022/04/13 10:52:10;;;;;;;1999.90;999.90;;;;;;;;;;5092996;27;20227;-73
2022/04/13 10:54:39;;;;;;;1999.90;999.90;;;;;;;;;;5062112;28;20231;-76
2022/04/13 10:57:07;;;;;;;1999.90;999.90;;;;;;;;;;5069400;28;20266;-77
2022/04/13 10:59:39;;;;;;;1999.90;999.90;;;;;;;;;;5082615;28;20232;-74
2022/04/13 11:02:12;;;;;;;1999.90;999.90;;;;;;;;;;5066489;28;20715;-75
2022/04/13 11:04:41;;;;;;;1999.90;999.90;;;;;;;;;;5081668;28;20319;-71
2022/04/13 11:07:09;;;;;;;1999.90;999.90;;;;;;;;;;5088699;28;20239;-71
2022/04/13 11:09:38;;;;;;;1999.90;999.90;;;;;;;;;;5085448;28;20305;-73
2022/04/13 11:12:07;;;;;;;1999.90;999.90;;;;;;;;;;5079295;28;20304;-76
2022/04/13 11:14:46;;;;;;;1999.90;999.90;;;;;;;;;;5076366;28;20783;-75
2022/04/13 11:17:23;;;;;;;1999.90;999.90;;;;;;;;;;5084230;28;20226;-75
2022/04/13 11:19:52;;;;;;;1999.90;999.90;;;;;;;;;;5082533;28;20245;-75
2022/04/13 11:22:20;;;;;;;1999.90;999.90;;;;;;;;;;5109897;27;20223;-75
2022/04/13 11:24:56;;;;;;;1999.90;999.90;;;;;;;;;;5086377;28;20228;-75
2022/04/13 11:27:25;;;;;;;1999.90;999.90;;;;;;;;;;5102025;27;20267;-76
2022/04/13 11:29:59;;;;;;;1999.90;999.90;;;;;;;;;;5081521;28;20308;-75
2022/04/13 11:32:29;;;;;;;1999.90;999.90;;;;;;;;;;5081990;28;20381;-75
2022/04/13 11:35:01;;;;;;;1999.90;999.90;;;;;;;;;;5088221;28;20270;-75
2022/04/13 11:37:42;;;;;;;1999.90;999.90;;;;;;;;;;5082060;28;20231;-75
2022/04/13 11:40:11;;;;;;;1999.90;999.90;;;;;;;;;;5085260;28;20254;-75
2022/04/13 11:43:00;;;;;;;1999.90;999.90;;;;;;;;;;5086602;28;20261;-75
2022/04/13 11:45:29;;;;;;;1999.90;999.90;;;;;;;;;;5088171;28;20234;-75
2022/04/13 11:48:00;;;;;;;1999.90;999.90;;;;;;;;;;5082882;28;20320;-75
2022/04/13 11:50:32;;;;;;;1999.90;999.90;;;;;;;;;;5085081;28;20332;-75
2022/04/13 11:53:00;;;;;;;1999.90;999.90;;;;;;;;;;5082571;28;20227;-74
2022/04/13 11:55:31;;;;;;;1999.90;999.90;;;;;;;;;;5115555;27;20684;-75
2022/04/13 11:57:59;;;;;;;1999.90;999.90;;;;;;;;;;5085427;28;20265;-73
2022/04/13 12:00:37;;;;;;;1999.90;999.90;;;;;;;;;;5101458;27;20805;-73
2022/04/13 12:03:05;;;;;;;1999.90;999.90;;;;;;;;;;5083036;28;20302;-74
2022/04/13 12:05:35;;;;;;;1999.90;999.90;;;;;;;;;;5064505;28;20223;-75
2022/04/13 12:08:08;;;;;;;1999.90;999.90;;;;;;;;;;5087636;28;20294;-74
2022/04/13 12:10:36;;;;;;;1999.90;999.90;;;;;;;;;;5080895;28;20227;-75
2022/04/13 12:13:04;;;;;;;1999.90;999.90;;;;;;;;;;5082925;28;20267;-74
2022/04/13 12:15:42;;;;;;;1999.90;999.90;;;;;;;;;;5112358;27;20248;-74
2022/04/13 12:18:10;;;;;;;1999.90;999.90;;;;;;;;;;5078278;28;20226;-74
2022/04/13 12:20:40;;;;;;;1999.90;999.90;;;;;;;;;;5075567;28;20652;-74
2022/04/13 12:23:17;;;;;;;1999.90;999.90;;;;;;;;;;5091833;28;20282;-74
2022/04/13 12:25:45;;;;;;;1999.90;999.90;;;;;;;;;;5088696;28;20313;-74
2022/04/13 12:28:13;;;;;;;1999.90;999.90;;;;;;;;;;5083551;28;20266;-74
2022/04/13 12:30:41;;;;;;;1999.90;999.90;;;;;;;;;;5083148;28;20235;-74
2022/04/13 12:33:12;;;;;;;1999.90;999.90;;;;;;;;;;5085316;28;20235;-74
2022/04/13 12:35:54;;;;;;;1999.90;999.90;;;;;;;;;;5081219;28;20294;-72
2022/04/13 12:38:23;;;;;;;1999.90;999.90;;;;;;;;;;5080903;28;20223;-73
2022/04/13 12:41:01;;;;;;;1999.90;999.90;;;;;;;;;;5080301;28;20227;-72
2022/04/13 12:43:29;;;;;;;1999.90;999.90;;;;;;;;;;5086693;28;21412;-72
2022/04/13 12:45:56;;;;;;;1999.90;999.90;;;;;;;;;;5075346;28;20251;-73
2022/04/13 12:48:27;;;;;;;1999.90;999.90;;;;;;;;;;5084486;28;20246;-73
2022/04/13 12:50:58;;;;;;;1999.90;999.90;;;;;;;;;;5075436;28;20245;-73
2022/04/13 12:53:25;;;;;;;1999.90;999.90;;;;;;;;;;5083625;28;20704;-73
2022/04/13 12:55:53;;;;;;;1999.90;999.90;;;;;;;;;;5074314;28;20224;-73
2022/04/13 12:58:21;;;;;;;1999.90;999.90;;;;;;;;;;5084302;28;20258;-74
2022/04/13 13:00:49;;;;;;;1999.90;999.90;;;;;;;;;;5062946;28;20305;-74
2022/04/13 13:03:18;;;;;;;1999.90;999.90;;;;;;;;;;5085636;28;20223;-73
2022/04/13 13:05:45;;;;;;;1999.90;999.90;;;;;;;;;;5081494;28;20644;-73
2022/04/13 13:08:15;;;;;;;1999.90;999.90;;;;;;;;;;5093598;27;20239;-73
2022/04/13 13:10:43;;;;;;;1999.90;999.90;;;;;;;;;;5113665;27;20235;-74
2022/04/13 13:13:11;;;;;;;1999.90;999.90;;;;;;;;;;5084437;28;20676;-74
2022/04/13 13:15:39;;;;;;;1999.90;999.90;;;;;;;;;;5078487;28;20232;-74
2022/04/13 13:18:07;;;;;;;1999.90;999.90;;;;;;;;;;5076261;28;20759;-73
2022/04/13 13:20:36;;;;;;;1999.90;999.90;;;;;;;;;;5071996;28;20360;-74
2022/04/13 13:23:07;;;;;;;1999.90;999.90;;;;;;;;;;5113570;27;20239;-73
2022/04/13 13:25:43;;;;;;;1999.90;999.90;;;;;;;;;;5085688;28;20741;-73
2022/04/13 13:28:10;;;;;;;1999.90;999.90;;;;;;;;;;5080170;28;20766;-73
2022/04/13 13:30:39;;;;;;;1999.90;999.90;;;;;;;;;;5081260;27;20282;-73
2022/04/13 13:33:09;;;;;;;1999.90;999.90;;;;;;;;;;5077677;28;20228;-72
2022/04/13 13:35:37;;;;;;;1999.90;999.90;;;;;;;;;;5080604;28;20665;-72
2022/04/13 13:38:06;;;;;;;1999.90;999.90;;;;;;;;;;5083125;28;20259;-71
2022/04/13 13:40:41;;;;;;;1999.90;999.90;;;;;;;;;;5117903;27;20288;-74
2022/04/13 13:43:11;;;;;;;1999.90;999.90;;;;;;;;;;5080115;28;20286;-73
2022/04/13 13:45:40;;;;;;;1999.90;999.90;;;;;;;;;;5078781;28;20236;-72
2022/04/13 13:48:08;;;;;;;1999.90;999.90;;;;;;;;;;5067345;28;20303;-73
2022/04/13 13:50:37;;;;;;;1999.90;999.90;;;;;;;;;;5089738;28;20261;-73
2022/04/13 13:53:05;;;;;;;1999.90;999.90;;;;;;;;;;5116513;27;20234;-73
2022/04/13 13:55:33;;;;;;;1999.90;999.90;;;;;;;;;;5066352;28;20705;-74
2022/04/13 13:58:01;;;;;;;1999.90;999.90;;;;;;;;;;5099629;27;20263;-74
2022/04/13 14:00:34;;;;;;;1999.90;999.90;;;;;;;;;;5090446;28;20717;-73
2022/04/13 14:03:03;;;;;;;1999.90;999.90;;;;;;;;;;5081518;28;20253;-72
2022/04/13 14:05:31;;;;;;;1999.90;999.90;;;;;;;;;;5079792;28;20510;-74
2022/04/13 14:08:00;;;;;;;1999.90;999.90;;;;;;;;;;5083033;28;20716;-74
2022/04/13 14:10:29;;;;;;;1999.90;999.90;;;;;;;;;;5089845;28;20231;-74
2022/04/13 14:12:57;;;;;;;1999.90;999.90;;;;;;;;;;5116985;27;20246;-72
2022/04/13 14:15:25;;;;;;;1999.90;999.90;;;;;;;;;;5071457;28;20758;-72
2022/04/13 14:17:54;;;;;;;1999.90;999.90;;;;;;;;;;5085556;28;20234;-73